Time;durP1;ratioP1;P1;durP2;ratioP2;P2;SDS_P1;SDS_P2;PMS_P1;PMS_P2;Temp;Humidity;BMP_temperature;BMP_pressure;BME280_temperature;BME280_humidity;BME280_pressure;Samples;Min_cycle;Max_cycle;Signal;HPM_P1;HPM_P2
2021/01/29 00:00:52;;;;;;;5.00;2.10;;;10.60;99.90;;;;;;5063712;28;20827;-74
2021/01/29 00:03:38;;;;;;;2.30;1.80;;;10.50;99.90;;;;;;5058970;28;20502;-73
2021/01/29 00:06:23;;;;;;;4.50;1.67;;;10.50;99.90;;;;;;5069252;28;20481;-72
2021/01/29 00:09:08;;;;;;;5.27;1.97;;;10.50;99.90;;;;;;5058459;28;20529;-73
2021/01/29 00:11:53;;;;;;;5.50;2.03;;;10.50;99.90;;;;;;5067713;28;20466;-74
2021/01/29 00:14:38;;;;;;;3.10;1.87;;;10.50;99.90;;;;;;5065432;28;20441;-71
2021/01/29 00:17:23;;;;;;;4.03;2.23;;;10.50;99.90;;;;;;5070138;28;20430;-75
2021/01/29 00:20:14;;;;;;;3.67;2.13;;;10.60;99.90;;;;;;5062737;28;20463;-74
2021/01/29 00:22:59;;;;;;;3.67;1.93;;;10.50;99.90;;;;;;5067751;28;20446;-73
2021/01/29 00:25:48;;;;;;;3.57;1.80;;;10.50;99.90;;;;;;5070455;28;20435;-74
2021/01/29 00:28:33;;;;;;;3.93;2.00;;;10.40;99.90;;;;;;5061109;28;20470;-74
2021/01/29 00:31:18;;;;;;;6.30;2.20;;;10.40;99.90;;;;;;5056643;28;20425;-72
2021/01/29 00:34:03;;;;;;;3.00;2.17;;;10.30;99.90;;;;;;5066507;28;20454;-74
2021/01/29 00:36:49;;;;;;;5.27;1.93;;;10.30;99.90;;;;;;5063269;28;20987;-73
2021/01/29 00:39:34;;;;;;;5.57;1.90;;;10.30;99.90;;;;;;5069270;28;20482;-74
2021/01/29 00:42:19;;;;;;;3.27;1.80;;;10.30;99.90;;;;;;5070151;28;20443;-73
2021/01/29 00:45:05;;;;;;;5.93;2.03;;;10.30;99.90;;;;;;5060941;28;20447;-74
2021/01/29 00:47:51;;;;;;;4.60;1.70;;;10.40;99.90;;;;;;5063161;28;20493;-73
2021/01/29 00:50:37;;;;;;;6.43;1.73;;;10.40;99.90;;;;;;5062015;28;20485;-73
2021/01/29 00:53:23;;;;;;;2.60;1.50;;;10.40;99.90;;;;;;5063054;28;20926;-74
2021/01/29 00:56:08;;;;;;;2.10;1.40;;;10.30;99.90;;;;;;5065505;28;20490;-73
2021/01/29 00:58:53;;;;;;;3.33;1.20;;;10.30;99.90;;;;;;5066024;28;20497;-72
2021/01/29 01:01:38;;;;;;;3.33;1.67;;;10.30;99.90;;;;;;5061792;28;20963;-73
2021/01/29 01:04:24;;;;;;;2.83;1.60;;;10.30;99.90;;;;;;5065080;28;20554;-74
2021/01/29 01:07:09;;;;;;;2.43;1.30;;;10.20;99.90;;;;;;5062305;28;20454;-74
2021/01/29 01:09:56;;;;;;;4.13;1.73;;;10.20;99.90;;;;;;5066725;28;20478;-73
2021/01/29 01:12:41;;;;;;;8.97;3.03;;;10.20;99.90;;;;;;5069813;28;20462;-73
2021/01/29 01:15:27;;;;;;;3.73;1.33;;;10.20;99.90;;;;;;5060344;28;20517;-73
2021/01/29 01:18:13;;;;;;;3.60;1.80;;;10.20;99.90;;;;;;5061805;28;20456;-74
2021/01/29 01:20:58;;;;;;;8.20;2.00;;;10.10;99.90;;;;;;5064797;28;20916;-73
2021/01/29 01:23:43;;;;;;;3.10;1.67;;;10.10;99.90;;;;;;5064732;28;20543;-74
2021/01/29 01:26:29;;;;;;;4.37;1.67;;;10.10;99.90;;;;;;5056157;28;20463;-73
2021/01/29 01:29:14;;;;;;;9.33;1.60;;;10.10;99.90;;;;;;5066952;28;21087;-74
2021/01/29 01:31:59;;;;;;;5.00;1.50;;;10.10;99.90;;;;;;5062235;28;20426;-73
2021/01/29 01:34:44;;;;;;;2.47;1.47;;;10.20;99.90;;;;;;5061108;28;20441;-74
2021/01/29 01:37:29;;;;;;;7.17;1.60;;;10.20;99.90;;;;;;5065207;28;20442;-74
2021/01/29 01:40:16;;;;;;;6.00;1.43;;;10.20;99.90;;;;;;5062933;28;20486;-74
2021/01/29 01:43:03;;;;;;;2.47;1.10;;;10.30;99.90;;;;;;5059223;28;20622;-73
2021/01/29 01:46:07;;;;;;;2.23;1.27;;;10.30;99.90;;;;;;5062848;28;20439;-74
2021/01/29 01:48:58;;;;;;;3.10;1.37;;;10.30;99.90;;;;;;5057502;28;20534;-71
2021/01/29 01:51:48;;;;;;;6.33;1.60;;;10.30;99.90;;;;;;5066845;28;20453;-74
2021/01/29 01:54:42;;;;;;;6.47;1.63;;;10.30;99.90;;;;;;5058077;28;20837;-74
2021/01/29 01:57:30;;;;;;;5.53;1.43;;;10.40;99.90;;;;;;5063635;28;20470;-74
2021/01/29 02:00:20;;;;;;;3.73;1.60;;;10.40;99.90;;;;;;5058946;28;20467;-73
2021/01/29 02:03:08;;;;;;;6.10;1.30;;;10.40;99.90;;;;;;5055894;28;20444;-73
2021/01/29 02:05:54;;;;;;;4.67;1.30;;;10.40;99.90;;;;;;5055189;28;20490;-73
2021/01/29 02:08:42;;;;;;;3.83;1.47;;;10.40;99.90;;;;;;5064618;28;20478;-73
2021/01/29 02:11:27;;;;;;;3.10;1.80;;;10.40;99.90;;;;;;5061576;28;20455;-73
2021/01/29 02:14:12;;;;;;;4.47;1.30;;;10.40;99.90;;;;;;5061720;28;20451;-74
2021/01/29 02:17:04;;;;;;;5.73;1.70;;;10.40;99.90;;;;;;5060099;28;20528;-73
2021/01/29 02:20:28;;;;;;;3.67;1.53;;;10.40;99.90;;;;;;5063846;28;20458;-73
2021/01/29 02:23:55;;;;;;;3.20;1.60;;;10.30;99.90;;;;;;5060866;28;20517;-73
2021/01/29 02:27:08;;;;;;;7.13;1.77;;;10.30;99.90;;;;;;5054125;28;20443;-73
2021/01/29 02:30:26;;;;;;;2.67;1.30;;;10.40;99.90;;;;;;5052177;28;20474;-74
2021/01/29 02:33:52;;;;;;;3.57;1.70;;;10.30;99.90;;;;;;5057250;28;20455;-73
2021/01/29 02:37:19;;;;;;;3.90;1.50;;;10.30;99.90;;;;;;5062614;28;20446;-73
2021/01/29 02:40:18;;;;;;;5.60;1.87;;;10.30;99.90;;;;;;5056159;28;20469;-74
2021/01/29 02:43:23;;;;;;;2.13;1.57;;;10.30;99.90;;;;;;5067643;28;20469;-73
2021/01/29 02:46:14;;;;;;;2.17;1.53;;;10.40;99.90;;;;;;5058176;28;20445;-73
2021/01/29 02:49:04;;;;;;;2.47;1.53;;;10.30;99.90;;;;;;5058879;28;20772;-73
2021/01/29 02:51:58;;;;;;;2.57;1.73;;;10.40;99.90;;;;;;5060495;28;21019;-73
2021/01/29 02:54:50;;;;;;;2.10;1.60;;;10.40;99.90;;;;;;5059094;28;20441;-73
2021/01/29 02:57:42;;;;;;;2.33;1.30;;;10.30;99.90;;;;;;5063987;28;20852;-72
2021/01/29 03:00:35;;;;;;;1.60;0.93;;;10.30;99.90;;;;;;5062610;28;20477;-74
2021/01/29 03:03:25;;;;;;;2.10;1.13;;;10.30;99.90;;;;;;5060353;28;20496;-74
2021/01/29 03:06:17;;;;;;;2.30;1.33;;;10.40;99.90;;;;;;5058752;28;20447;-73
2021/01/29 03:09:08;;;;;;;2.20;1.50;;;10.40;99.90;;;;;;5064603;28;20533;-74
2021/01/29 03:12:00;;;;;;;2.10;1.70;;;10.50;99.90;;;;;;5060309;28;20543;-73
2021/01/29 03:14:54;;;;;;;1.77;1.20;;;10.40;99.90;;;;;;5064267;28;20437;-73
2021/01/29 03:17:42;;;;;;;2.27;1.63;;;10.40;99.90;;;;;;5066693;28;20487;-74
2021/01/29 03:20:31;;;;;;;2.33;1.40;;;10.30;99.90;;;;;;5067767;28;20475;-73
2021/01/29 03:23:23;;;;;;;6.27;1.83;;;10.40;99.90;;;;;;5060470;28;20478;-72
2021/01/29 03:26:14;;;;;;;2.47;1.90;;;10.40;99.90;;;;;;5059648;28;20453;-73
2021/01/29 03:29:02;;;;;;;2.80;1.70;;;10.30;99.90;;;;;;5061588;28;20509;-74
2021/01/29 03:31:51;;;;;;;3.90;2.10;;;10.30;99.90;;;;;;5063262;28;20501;-73
2021/01/29 03:34:41;;;;;;;2.03;1.60;;;10.30;99.90;;;;;;5060175;28;20923;-72
2021/01/29 03:37:34;;;;;;;2.87;1.90;;;10.30;99.90;;;;;;5063861;28;20593;-73
2021/01/29 03:40:19;;;;;;;1.87;1.67;;;10.30;99.90;;;;;;5065731;28;20801;-73
2021/01/29 03:43:15;;;;;;;2.27;1.60;;;10.40;99.90;;;;;;5069703;28;20471;-74
2021/01/29 03:46:09;;;;;;;2.73;1.80;;;10.30;99.90;;;;;;5057986;28;20490;-73
2021/01/29 03:49:00;;;;;;;1.97;1.50;;;10.30;99.90;;;;;;5065920;28;20482;-74
2021/01/29 03:51:55;;;;;;;2.60;1.77;;;10.40;99.90;;;;;;5060993;28;20498;-73
2021/01/29 03:54:55;;;;;;;2.67;1.73;;;10.40;99.90;;;;;;5067857;28;20980;-73
2021/01/29 03:57:52;;;;;;;1.90;1.70;;;10.40;99.90;;;;;;5069849;28;20474;-71
2021/01/29 04:00:42;;;;;;;2.83;2.17;;;10.40;99.90;;;;;;5069314;28;20458;-73
2021/01/29 04:03:38;;;;;;;2.60;2.40;;;10.50;99.90;;;;;;5065448;28;20968;-73
2021/01/29 04:06:26;;;;;;;3.30;2.37;;;10.40;99.90;;;;;;5065132;28;20533;-74
2021/01/29 04:09:16;;;;;;;4.37;3.33;;;10.40;99.90;;;;;;5062692;28;20477;-73
2021/01/29 04:12:04;;;;;;;3.70;3.10;;;10.30;99.90;;;;;;5066083;28;20869;-73
2021/01/29 04:14:55;;;;;;;4.27;3.60;;;10.40;99.90;;;;;;5068725;28;21018;-73
2021/01/29 04:17:47;;;;;;;3.40;3.10;;;10.40;99.90;;;;;;5067076;28;20533;-73
2021/01/29 04:20:36;;;;;;;3.40;2.80;;;10.40;99.90;;;;;;5058793;28;21009;-73
2021/01/29 04:23:29;;;;;;;3.53;2.73;;;10.40;99.90;;;;;;5065637;28;20566;-72
2021/01/29 04:26:18;;;;;;;3.17;2.53;;;10.40;99.90;;;;;;5061187;28;21241;-73
2021/01/29 04:29:09;;;;;;;5.10;2.30;;;10.50;99.90;;;;;;5059653;28;20481;-73
2021/01/29 04:32:00;;;;;;;4.63;2.10;;;10.50;99.90;;;;;;5062721;28;20448;-73
2021/01/29 04:34:50;;;;;;;3.00;1.67;;;10.50;99.90;;;;;;5055810;28;20442;-73
2021/01/29 04:37:39;;;;;;;3.40;1.63;;;10.50;99.90;;;;;;5063682;28;20814;-73
2021/01/29 04:40:28;;;;;;;2.13;1.63;;;10.50;99.90;;;;;;5066564;28;20881;-73
2021/01/29 04:43:33;;;;;;;2.60;1.67;;;10.60;99.90;;;;;;5067499;28;20459;-74
2021/01/29 04:46:44;;;;;;;2.23;1.50;;;10.50;99.90;;;;;;5066420;28;20537;-73
2021/01/29 04:49:42;;;;;;;4.60;1.67;;;10.50;99.90;;;;;;5067861;28;20525;-72
2021/01/29 04:52:59;;;;;;;3.70;1.53;;;10.50;99.90;;;;;;5059448;28;20475;-73
2021/01/29 04:56:11;;;;;;;4.30;1.70;;;10.50;99.90;;;;;;5043350;28;20501;-72
2021/01/29 04:59:18;;;;;;;3.47;1.90;;;10.50;99.90;;;;;;5064327;28;20501;-74
2021/01/29 05:02:22;;;;;;;2.83;1.57;;;10.50;99.90;;;;;;5059283;28;20500;-73
2021/01/29 05:05:23;;;;;;;2.00;1.20;;;10.50;99.90;;;;;;5058468;28;20516;-74
2021/01/29 05:08:46;;;;;;;5.67;1.40;;;10.50;99.90;;;;;;5057123;28;20473;-73
2021/01/29 05:11:52;;;;;;;4.40;1.27;;;10.60;99.90;;;;;;5066443;28;20523;-73
2021/01/29 05:15:06;;;;;;;6.90;1.60;;;10.60;99.90;;;;;;5063367;28;20538;-73
2021/01/29 05:18:22;;;;;;;2.50;1.07;;;10.50;99.90;;;;;;5065404;28;20975;-72
2021/01/29 05:21:47;;;;;;;2.90;1.27;;;10.50;99.90;;;;;;5061031;28;20618;-73
2021/01/29 05:25:03;;;;;;;2.60;1.30;;;10.40;99.90;;;;;;5044502;28;20533;-73
2021/01/29 05:28:13;;;;;;;1.87;1.17;;;10.30;99.90;;;;;;5061091;28;20443;-73
2021/01/29 05:31:19;;;;;;;1.47;1.03;;;10.30;99.90;;;;;;5064266;28;20505;-72
2021/01/29 05:34:24;;;;;;;2.47;1.20;;;10.30;99.90;;;;;;5060135;28;20471;-73
2021/01/29 05:37:40;;;;;;;2.83;1.23;;;10.30;99.90;;;;;;5055636;28;20464;-73
2021/01/29 05:41:09;;;;;;;1.87;1.20;;;10.30;99.90;;;;;;5065473;28;20589;-74
2021/01/29 05:44:20;;;;;;;1.50;1.03;;;10.40;99.90;;;;;;5059840;28;20446;-73
2021/01/29 05:47:30;;;;;;;2.07;1.03;;;10.40;99.90;;;;;;5045611;28;20477;-73
2021/01/29 05:50:31;;;;;;;1.70;1.17;;;10.30;99.90;;;;;;5046397;28;20845;-73
2021/01/29 05:53:35;;;;;;;3.63;1.07;;;10.30;99.90;;;;;;5058307;28;21101;-71
2021/01/29 05:56:34;;;;;;;2.90;1.10;;;10.30;99.90;;;;;;5062773;28;20575;-73
2021/01/29 05:59:46;;;;;;;2.00;1.30;;;10.30;99.90;;;;;;5059435;28;21107;-72
2021/01/29 06:02:52;;;;;;;2.00;1.10;;;10.30;99.90;;;;;;5059464;28;20548;-73
2021/01/29 06:06:21;;;;;;;1.60;1.17;;;10.40;99.90;;;;;;5061038;28;20848;-73
2021/01/29 06:09:26;;;;;;;2.10;1.23;;;10.40;99.90;;;;;;5027491;28;21035;-73
2021/01/29 06:12:30;;;;;;;1.53;0.90;;;10.30;99.90;;;;;;5063663;28;20471;-71
2021/01/29 06:16:06;;;;;;;1.80;0.93;;;10.30;99.90;;;;;;5066771;28;20588;-74
2021/01/29 06:19:44;;;;;;;1.93;1.50;;;10.30;99.90;;;;;;5015835;28;20514;-73
2021/01/29 06:23:00;;;;;;;7.53;1.17;;;10.40;99.90;;;;;;4966763;28;20453;-73
2021/01/29 06:25:54;;;;;;;1.40;0.90;;;10.30;99.90;;;;;;5008347;28;20817;-73
2021/01/29 06:29:16;;;;;;;4.00;2.03;;;10.30;99.90;;;;;;5061610;28;20520;-73
2021/01/29 06:32:37;;;;;;;1.63;0.90;;;10.30;99.90;;;;;;5061233;28;21035;-73
2021/01/29 06:35:44;;;;;;;1.60;0.90;;;10.30;99.90;;;;;;5060652;28;20953;-74
2021/01/29 06:38:43;;;;;;;2.77;1.20;;;10.40;99.90;;;;;;5056177;28;20594;-73
2021/01/29 06:42:04;;;;;;;1.90;1.00;;;10.40;99.90;;;;;;5063988;28;20851;-73
2021/01/29 06:45:14;;;;;;;1.73;0.77;;;10.40;99.90;;;;;;5066319;28;20485;-73
2021/01/29 06:48:41;;;;;;;2.43;0.90;;;10.40;99.90;;;;;;5058537;28;20450;-73
2021/01/29 06:52:06;;;;;;;1.40;0.70;;;10.50;99.90;;;;;;5063290;28;20885;-74
2021/01/29 06:55:26;;;;;;;2.47;0.60;;;10.40;99.90;;;;;;5056222;28;20458;-73
2021/01/29 06:58:48;;;;;;;1.67;0.70;;;10.40;99.90;;;;;;5056251;28;20459;-73
2021/01/29 07:01:53;;;;;;;1.77;0.57;;;10.40;99.90;;;;;;5060366;28;20504;-74
2021/01/29 07:05:06;;;;;;;1.60;0.50;;;10.40;99.90;;;;;;5062243;28;20470;-73
2021/01/29 07:08:09;;;;;;;1.30;0.57;;;10.40;99.90;;;;;;5064858;28;20457;-73
2021/01/29 07:11:21;;;;;;;1.20;0.60;;;10.50;99.90;;;;;;5062634;28;20508;-74
2021/01/29 07:14:36;;;;;;;1.60;0.60;;;10.50;99.90;;;;;;5064976;28;20967;-72
2021/01/29 07:17:36;;;;;;;1.60;0.70;;;10.40;99.90;;;;;;5064859;28;20478;-72
2021/01/29 07:20:47;;;;;;;1.20;0.50;;;10.40;99.90;;;;;;5068153;28;20462;-72
2021/01/29 07:23:49;;;;;;;2.27;0.90;;;10.40;99.90;;;;;;5068679;28;20505;-72
2021/01/29 07:26:47;;;;;;;2.23;1.03;;;10.40;99.90;;;;;;5065529;28;20439;-72
2021/01/29 07:30:02;;;;;;;1.30;0.53;;;10.40;99.90;;;;;;5067559;28;20604;-72
2021/01/29 07:32:50;;;;;;;1.80;0.70;;;10.50;99.90;;;;;;5063972;28;21051;-72
2021/01/29 07:35:42;;;;;;;1.40;0.53;;;10.40;99.90;;;;;;5062313;28;20566;-72
2021/01/29 07:39:13;;;;;;;1.53;0.70;;;10.40;99.90;;;;;;5065213;28;20489;-72
2021/01/29 07:42:17;;;;;;;2.00;0.60;;;10.30;99.90;;;;;;5028951;28;20485;-72
2021/01/29 07:45:17;;;;;;;1.27;0.63;;;10.30;99.90;;;;;;5060243;28;21021;-72
2021/01/29 07:48:42;;;;;;;1.77;0.73;;;10.30;99.90;;;;;;5056606;28;21079;-72
2021/01/29 07:51:36;;;;;;;1.40;0.60;;;10.30;99.90;;;;;;5066322;28;20458;-73
2021/01/29 07:54:47;;;;;;;3.37;0.77;;;10.30;99.90;;;;;;5067059;28;20482;-73
2021/01/29 07:58:03;;;;;;;1.40;0.60;;;10.30;99.90;;;;;;5063393;28;20540;-72
2021/01/29 08:01:13;;;;;;;1.87;0.97;;;10.20;99.90;;;;;;5051498;28;20995;-73
2021/01/29 08:04:28;;;;;;;2.37;0.60;;;10.20;99.90;;;;;;5068810;28;20450;-73
2021/01/29 08:07:17;;;;;;;2.07;0.70;;;10.20;99.90;;;;;;5062629;28;20996;-73
2021/01/29 08:10:07;;;;;;;4.80;0.80;;;10.30;99.90;;;;;;5059282;28;20478;-72
2021/01/29 08:13:04;;;;;;;2.43;0.70;;;10.40;99.90;;;;;;5056836;28;20490;-72
2021/01/29 08:15:59;;;;;;;2.20;0.90;;;10.40;99.90;;;;;;5063554;28;20450;-73
2021/01/29 08:18:56;;;;;;;1.70;0.80;;;10.40;99.90;;;;;;5061912;28;20510;-73
2021/01/29 08:22:28;;;;;;;1.20;0.60;;;10.40;99.90;;;;;;5066620;28;20525;-73
2021/01/29 08:25:23;;;;;;;3.27;1.63;;;10.40;99.90;;;;;;5011127;28;20505;-73
2021/01/29 08:28:44;;;;;;;3.70;1.70;;;10.40;99.90;;;;;;5059084;28;20482;-73
2021/01/29 08:31:49;;;;;;;2.00;1.20;;;10.50;99.90;;;;;;5064325;28;20510;-73
2021/01/29 08:35:04;;;;;;;2.27;0.90;;;10.60;99.90;;;;;;5060187;28;20455;-72
2021/01/29 08:37:57;;;;;;;3.13;1.00;;;10.60;99.90;;;;;;5062862;28;20446;-72
2021/01/29 08:40:52;;;;;;;3.30;1.13;;;10.70;99.90;;;;;;5062458;28;20474;-72
2021/01/29 08:44:05;;;;;;;2.73;1.33;;;10.70;99.90;;;;;;5070487;28;21078;-72
2021/01/29 08:47:04;;;;;;;4.00;1.00;;;10.70;99.90;;;;;;5055279;28;21011;-72
2021/01/29 08:50:03;;;;;;;1.50;0.90;;;10.70;99.90;;;;;;5062662;28;21014;-72
2021/01/29 08:53:15;;;;;;;1.60;0.87;;;10.70;99.90;;;;;;5065709;28;20575;-72
2021/01/29 08:56:10;;;;;;;2.43;0.90;;;10.70;99.90;;;;;;5063865;28;20451;-72
2021/01/29 08:58:59;;;;;;;2.10;0.67;;;10.80;99.90;;;;;;5063157;28;20829;-72
2021/01/29 09:01:53;;;;;;;3.40;1.00;;;10.80;99.90;;;;;;5062274;28;20434;-72
2021/01/29 09:04:42;;;;;;;2.80;0.90;;;10.80;99.90;;;;;;5067802;28;20531;-72
2021/01/29 09:07:30;;;;;;;2.83;1.03;;;10.70;99.90;;;;;;5063874;28;20590;-72
2021/01/29 09:10:22;;;;;;;3.77;2.23;;;10.60;99.90;;;;;;5060463;28;20454;-72
2021/01/29 09:13:16;;;;;;;2.60;1.50;;;10.50;99.90;;;;;;5067328;28;20462;-72
2021/01/29 09:16:09;;;;;;;2.30;0.70;;;10.50;99.90;;;;;;5066723;28;20494;-72
2021/01/29 09:19:02;;;;;;;5.93;1.10;;;10.40;99.90;;;;;;5062185;28;20435;-72
2021/01/29 09:21:57;;;;;;;7.83;2.17;;;10.50;99.90;;;;;;5069350;28;20842;-72
2021/01/29 09:24:51;;;;;;;8.37;1.70;;;10.50;99.90;;;;;;5064848;28;20573;-72
2021/01/29 09:28:01;;;;;;;2.80;1.00;;;10.60;99.90;;;;;;5061970;28;20455;-72
2021/01/29 09:30:56;;;;;;;4.80;1.07;;;10.70;99.90;;;;;;5061940;28;20507;-72
2021/01/29 09:33:47;;;;;;;7.67;1.50;;;10.70;99.90;;;;;;5063917;28;20458;-72
2021/01/29 09:36:36;;;;;;;4.13;1.00;;;10.70;99.90;;;;;;5064754;28;20501;-73
2021/01/29 09:39:27;;;;;;;3.40;1.30;;;10.80;99.90;;;;;;5062247;28;20459;-72
2021/01/29 09:42:21;;;;;;;3.90;1.30;;;10.70;99.90;;;;;;5067480;28;20475;-72
2021/01/29 09:45:14;;;;;;;3.17;1.37;;;10.70;99.90;;;;;;5063343;28;20814;-72
2021/01/29 09:48:02;;;;;;;6.77;1.20;;;10.70;99.90;;;;;;5064970;28;20462;-72
2021/01/29 09:50:50;;;;;;;6.90;1.60;;;10.70;99.90;;;;;;5058561;28;20474;-72
2021/01/29 09:53:41;;;;;;;4.60;1.43;;;10.80;99.90;;;;;;5060107;28;20474;-72
2021/01/29 09:56:30;;;;;;;7.47;1.80;;;10.80;99.90;;;;;;5056117;28;20559;-72
2021/01/29 09:59:21;;;;;;;7.80;2.10;;;10.80;99.90;;;;;;5067427;28;20469;-72
2021/01/29 10:02:19;;;;;;;5.13;1.40;;;10.90;99.90;;;;;;5058106;28;20489;-72
2021/01/29 10:05:20;;;;;;;10.73;1.30;;;11.00;99.90;;;;;;5066258;28;20435;-72
2021/01/29 10:08:15;;;;;;;3.83;1.50;;;11.00;99.90;;;;;;5063485;28;20434;-72
2021/01/29 10:11:03;;;;;;;5.80;2.10;;;11.00;99.90;;;;;;5059811;28;20478;-72
2021/01/29 10:14:00;;;;;;;7.37;1.60;;;11.00;99.90;;;;;;5060628;28;20520;-72
2021/01/29 10:16:54;;;;;;;10.53;1.40;;;11.00;99.90;;;;;;5065332;28;20455;-72
2021/01/29 10:19:42;;;;;;;10.13;1.63;;;11.10;99.90;;;;;;5064758;28;20508;-72
2021/01/29 10:23:00;;;;;;;10.63;2.17;;;11.10;99.90;;;;;;5062309;28;20551;-72
2021/01/29 10:25:56;;;;;;;5.90;1.53;;;11.10;99.90;;;;;;5059079;28;20453;-72
2021/01/29 10:29:13;;;;;;;12.70;2.57;;;11.10;99.90;;;;;;5061650;28;20530;-72
2021/01/29 10:32:06;;;;;;;4.50;1.43;;;11.10;99.90;;;;;;5061203;28;20769;-72
2021/01/29 10:35:07;;;;;;;3.97;1.40;;;11.00;99.90;;;;;;5059817;28;20450;-72
2021/01/29 10:38:01;;;;;;;7.17;1.80;;;11.00;99.90;;;;;;5062877;28;20534;-72
2021/01/29 10:41:02;;;;;;;9.20;1.93;;;11.00;99.90;;;;;;5065058;28;20495;-72
2021/01/29 10:43:53;;;;;;;8.50;2.70;;;11.00;99.90;;;;;;5066574;28;20447;-72
2021/01/29 10:46:58;;;;;;;7.97;1.53;;;11.00;99.90;;;;;;5069229;28;20442;-72
2021/01/29 10:49:55;;;;;;;6.50;1.53;;;11.00;99.90;;;;;;5063209;28;20600;-72
2021/01/29 10:52:59;;;;;;;6.63;1.60;;;11.00;99.90;;;;;;5066797;28;20534;-72
2021/01/29 10:55:55;;;;;;;6.33;1.60;;;11.00;99.90;;;;;;5064423;28;20848;-72
2021/01/29 10:58:52;;;;;;;8.27;1.50;;;11.00;99.90;;;;;;5057486;28;20498;-72
2021/01/29 11:01:40;;;;;;;7.07;1.90;;;11.10;99.90;;;;;;5066174;28;20450;-72
2021/01/29 11:04:29;;;;;;;5.50;1.40;;;11.10;99.90;;;;;;5064926;28;20525;-72
2021/01/29 11:07:24;;;;;;;12.73;2.30;;;11.10;99.90;;;;;;5062564;28;21029;-72
2021/01/29 11:10:17;;;;;;;11.73;1.63;;;11.00;99.90;;;;;;5064466;28;20584;-71
2021/01/29 11:13:10;;;;;;;7.70;2.20;;;11.00;99.90;;;;;;5061469;28;20459;-72
2021/01/29 11:16:01;;;;;;;7.50;1.73;;;11.00;99.90;;;;;;5065521;28;20441;-73
2021/01/29 11:18:56;;;;;;;7.67;1.67;;;11.00;99.90;;;;;;5070352;28;20461;-72
2021/01/29 11:21:49;;;;;;;7.80;1.33;;;11.00;99.90;;;;;;5057480;28;20454;-72
2021/01/29 11:24:42;;;;;;;5.00;1.30;;;11.00;99.90;;;;;;5061313;28;20828;-72
2021/01/29 11:27:36;;;;;;;7.23;1.37;;;11.00;99.90;;;;;;5066515;28;20845;-72
2021/01/29 11:30:27;;;;;;;8.77;2.10;;;11.00;99.90;;;;;;5061961;28;20474;-72
2021/01/29 11:33:13;;;;;;;7.43;1.90;;;11.00;99.90;;;;;;5063828;28;20429;-72
2021/01/29 11:36:06;;;;;;;4.53;1.33;;;11.00;99.90;;;;;;5057136;28;20524;-72
2021/01/29 11:38:58;;;;;;;9.07;1.50;;;10.90;99.90;;;;;;5066464;28;20449;-72
2021/01/29 11:42:05;;;;;;;8.80;2.00;;;10.90;99.90;;;;;;5066956;28;20458;-72
2021/01/29 11:45:02;;;;;;;5.00;1.70;;;11.00;99.90;;;;;;5068290;28;20450;-72
2021/01/29 11:48:00;;;;;;;9.00;1.50;;;10.90;99.90;;;;;;5058422;28;20473;-72
2021/01/29 11:50:52;;;;;;;5.10;2.00;;;10.90;99.90;;;;;;5056908;28;20693;-72
2021/01/29 11:53:43;;;;;;;11.80;1.63;;;10.90;99.90;;;;;;5060342;28;20452;-72
2021/01/29 11:56:36;;;;;;;6.17;1.73;;;11.00;99.90;;;;;;5064240;28;20458;-72
2021/01/29 11:59:29;;;;;;;4.30;2.03;;;11.00;99.90;;;;;;5064601;28;20494;-72
2021/01/29 12:02:27;;;;;;;13.77;2.07;;;11.00;99.90;;;;;;5063023;28;21120;-72
2021/01/29 12:05:26;;;;;;;10.07;1.80;;;11.00;99.90;;;;;;5060936;28;20454;-72
2021/01/29 12:08:36;;;;;;;11.27;4.23;;;11.00;99.90;;;;;;5061695;28;20953;-72
2021/01/29 12:11:28;;;;;;;8.50;3.30;;;11.00;99.90;;;;;;5068195;28;20484;-72
2021/01/29 12:14:24;;;;;;;11.97;2.50;;;11.00;99.90;;;;;;5061172;28;20447;-73
2021/01/29 12:17:11;;;;;;;9.03;3.03;;;11.00;99.90;;;;;;5061049;28;20451;-72
2021/01/29 12:20:00;;;;;;;10.57;3.17;;;11.00;99.90;;;;;;5066932;28;21024;-72
2021/01/29 12:22:53;;;;;;;11.90;1.93;;;11.10;99.90;;;;;;5064345;28;20442;-72
2021/01/29 12:26:06;;;;;;;6.43;3.50;;;11.10;99.90;;;;;;5063109;28;20530;-72
2021/01/29 12:29:03;;;;;;;12.80;4.07;;;11.10;99.90;;;;;;5057001;28;20450;-72
2021/01/29 12:32:00;;;;;;;8.23;2.30;;;11.20;99.90;;;;;;5056205;28;20452;-72
2021/01/29 12:34:50;;;;;;;13.33;2.90;;;11.10;99.90;;;;;;5065579;28;20520;-72
2021/01/29 12:37:38;;;;;;;9.17;2.37;;;11.10;99.90;;;;;;5063615;28;20486;-72
2021/01/29 12:40:35;;;;;;;12.40;2.03;;;11.10;99.90;;;;;;5063052;28;20552;-72
2021/01/29 12:43:31;;;;;;;10.50;1.83;;;11.10;99.90;;;;;;5061782;28;20959;-72
2021/01/29 12:46:24;;;;;;;7.10;1.73;;;11.10;99.90;;;;;;5067346;28;20577;-72
2021/01/29 12:49:14;;;;;;;12.97;2.70;;;11.00;99.90;;;;;;5063308;28;20454;-72
2021/01/29 12:52:04;;;;;;;15.70;2.27;;;10.80;99.90;;;;;;5059761;28;20451;-72
2021/01/29 12:54:56;;;;;;;8.10;2.20;;;10.80;99.90;;;;;;5060689;28;20500;-72
2021/01/29 12:57:42;;;;;;;7.97;1.43;;;10.80;99.90;;;;;;5061903;28;20227;-72
2021/01/29 13:00:33;;;;;;;12.73;2.30;;;10.70;99.90;;;;;;5057552;28;20498;-72
2021/01/29 13:03:34;;;;;;;8.17;2.40;;;10.70;99.90;;;;;;5063658;28;20451;-72
2021/01/29 13:06:31;;;;;;;5.57;1.97;;;10.70;99.90;;;;;;5062810;28;20520;-72
2021/01/29 13:09:35;;;;;;;4.00;1.47;;;10.80;99.90;;;;;;5061713;28;20605;-72
2021/01/29 13:12:31;;;;;;;7.60;1.80;;;10.70;99.90;;;;;;5066683;28;20971;-72
2021/01/29 13:15:31;;;;;;;6.33;2.07;;;10.60;99.90;;;;;;5059647;28;20446;-72
2021/01/29 13:18:23;;;;;;;7.43;2.00;;;10.60;99.90;;;;;;5066075;28;20447;-72
2021/01/29 13:21:13;;;;;;;5.50;1.73;;;10.50;99.90;;;;;;5062418;28;20485;-72
2021/01/29 13:23:59;;;;;;;6.90;1.50;;;10.50;99.90;;;;;;5060531;28;20446;-72
2021/01/29 13:26:46;;;;;;;5.07;1.47;;;10.50;99.90;;;;;;5060563;28;20458;-72
2021/01/29 13:29:33;;;;;;;6.13;1.60;;;10.60;99.90;;;;;;5065822;28;20482;-72
2021/01/29 13:32:24;;;;;;;9.67;2.43;;;10.70;99.90;;;;;;5060423;28;20954;-72
2021/01/29 13:35:12;;;;;;;10.00;2.30;;;10.70;99.90;;;;;;5060645;28;20886;-72
2021/01/29 13:38:17;;;;;;;14.10;3.20;;;10.80;99.90;;;;;;5058929;28;20964;-73
2021/01/29 13:41:12;;;;;;;7.53;1.93;;;10.80;99.90;;;;;;5064997;28;20536;-72
2021/01/29 13:44:18;;;;;;;15.20;3.13;;;10.90;99.90;;;;;;5062737;28;20446;-72
2021/01/29 13:47:06;;;;;;;7.37;2.57;;;11.00;99.90;;;;;;5066414;28;20546;-72
2021/01/29 13:49:52;;;;;;;9.50;2.70;;;11.00;99.90;;;;;;5065547;28;21092;-72
2021/01/29 13:52:37;;;;;;;8.13;2.20;;;11.00;99.90;;;;;;5061669;28;20526;-72
2021/01/29 13:55:28;;;;;;;8.83;2.20;;;10.80;99.90;;;;;;5066544;28;20443;-72
2021/01/29 13:58:20;;;;;;;11.93;2.17;;;10.80;99.90;;;;;;5058831;28;20438;-72
2021/01/29 14:01:08;;;;;;;6.80;2.23;;;10.80;99.90;;;;;;5061485;28;20466;-72
2021/01/29 14:03:57;;;;;;;5.30;1.60;;;10.90;99.90;;;;;;5057316;28;20451;-72
2021/01/29 14:06:44;;;;;;;7.20;2.00;;;10.90;99.90;;;;;;5066105;28;20497;-72
2021/01/29 14:09:29;;;;;;;8.97;2.13;;;10.90;99.90;;;;;;5063695;28;20508;-72
2021/01/29 14:12:25;;;;;;;3.90;1.10;;;10.90;99.90;;;;;;5062534;28;20449;-72
2021/01/29 14:15:16;;;;;;;6.27;1.80;;;10.90;99.90;;;;;;5060999;28;20463;-72
2021/01/29 14:18:30;;;;;;;10.43;1.60;;;10.90;99.90;;;;;;5060152;28;20451;-72
2021/01/29 14:21:21;;;;;;;7.83;1.93;;;10.80;99.90;;;;;;5063537;28;20462;-72
2021/01/29 14:24:15;;;;;;;10.23;1.97;;;10.80;99.90;;;;;;5064233;28;20500;-72
2021/01/29 14:27:06;;;;;;;10.90;2.17;;;10.80;99.90;;;;;;5063982;28;20438;-72
2021/01/29 14:29:58;;;;;;;13.77;2.10;;;10.80;99.90;;;;;;5060764;28;20469;-72
2021/01/29 14:33:05;;;;;;;4.63;1.97;;;10.70;99.90;;;;;;5067569;28;20462;-72
2021/01/29 14:36:07;;;;;;;7.87;1.60;;;10.70;99.90;;;;;;5060475;28;20441;-72
2021/01/29 14:39:19;;;;;;;6.70;2.63;;;10.70;99.90;;;;;;5058550;28;20458;-72
2021/01/29 14:42:22;;;;;;;6.70;1.60;;;10.70;99.90;;;;;;5062757;28;20508;-72
2021/01/29 14:45:26;;;;;;;5.70;1.40;;;10.70;99.90;;;;;;5066892;28;21014;-72
2021/01/29 14:48:37;;;;;;;6.40;1.30;;;10.70;99.90;;;;;;5061527;28;20809;-72
2021/01/29 14:51:29;;;;;;;10.50;1.60;;;10.70;99.90;;;;;;5062645;28;21027;-72
2021/01/29 14:54:17;;;;;;;6.53;1.30;;;10.80;99.90;;;;;;5059483;28;20896;-72
2021/01/29 14:57:08;;;;;;;4.20;1.83;;;10.90;99.90;;;;;;5061695;28;20462;-72
2021/01/29 14:59:56;;;;;;;4.70;1.50;;;10.90;99.90;;;;;;5060241;28;20507;-72
2021/01/29 15:02:49;;;;;;;3.37;1.20;;;11.00;99.90;;;;;;5058874;28;20819;-72
2021/01/29 15:05:38;;;;;;;2.70;1.10;;;11.00;99.90;;;;;;5063154;28;20591;-72
2021/01/29 15:08:28;;;;;;;5.87;0.97;;;11.00;99.90;;;;;;5055715;28;20450;-72
2021/01/29 15:11:18;;;;;;;4.70;1.20;;;11.00;99.90;;;;;;5066620;28;20460;-72
2021/01/29 15:14:04;;;;;;;3.40;1.10;;;11.00;99.90;;;;;;5066557;28;20421;-72
2021/01/29 15:16:52;;;;;;;2.93;1.10;;;10.90;99.90;;;;;;5061484;28;20485;-72
2021/01/29 15:19:41;;;;;;;6.00;1.47;;;10.80;99.90;;;;;;5055766;28;20497;-72